^^
Saratoga-Weather Station Historical Data
Daily Summary for January 3, 2021 Units:  English    Metric   Both
Daily Weekly Monthly Yearly Custom
  High: Low: Average:
Temperature: 59.2 °F 34.5 °F 47.5 °F
Dew Point: 38.8 °F 31.6 °F 34.9 °F
Humidity: 90% 39% 64%
Wind Speed: 10.1mph 0mph 1.5mph
Wind Gust: 13mph - -
Wind- - WSW
Pressure: 30.2 in 29.9 in -
Precipitation: 0 in    
Historical Graphs
 
 
Tabular Data for January 3, 2021
Time Temperature Dew Point Pressure Wind Wind Speed Wind Gust Humidity Rainfall Rate (Hourly) solar
00:01 41.5 °F 34.5 °F 30.2 in NW 0.9 mph 1 mph 76% 0 in 0 W/m2
00:06 41.4 °F 34.3 °F 30.2 in Calm     76% 0 in 0 W/m2
00:11 41 °F 34 °F 30.2 in Calm     76% 0 in 0 W/m2
00:16 40.8 °F 34.2 °F 30.2 in Calm     77% 0 in 0 W/m2
00:21 40.6 °F 34 °F 30.2 in Calm     77% 0 in 0 W/m2
00:26 40.5 °F 34.2 °F 30.2 in NW 0.9 mph 1 mph 78% 0 in 0 W/m2
00:31 40.3 °F 34 °F 30.2 in NW 0.9 mph 2 mph 78% 0 in 0 W/m2
00:36 40.1 °F 33.8 °F 30.2 in NW 0.9 mph 1 mph 78% 0 in 0 W/m2
00:41 40.1 °F 33.8 °F 30.2 in WNW 0.9 mph 3 mph 78% 0 in 0 W/m2
00:46 40.5 °F 34.2 °F 30.2 in WNW 0.9 mph 1 mph 78% 0 in 0 W/m2
00:51 40.5 °F 34.2 °F 30.2 in WNW 2 mph 3 mph 78% 0 in 0 W/m2
00:56 40.5 °F 34.2 °F 30.2 in Calm   1 mph 78% 0 in 0 W/m2
01:01 40.5 °F 33.8 °F 30.2 in WNW 0.9 mph 1 mph 77% 0 in 0 W/m2
01:06 40.5 °F 33.8 °F 30.2 in WNW 2 mph 2 mph 77% 0 in 0 W/m2
01:11 40.3 °F 33.6 °F 30.2 in WNW 0.9 mph 1 mph 77% 0 in 0 W/m2
01:16 40.3 °F 34 °F 30.2 in WNW 0.9 mph 1 mph 78% 0 in 0 W/m2
01:21 40.1 °F 33.8 °F 30.2 in Calm   1 mph 78% 0 in 0 W/m2
01:26 39.9 °F 33.6 °F 30.2 in Calm     78% 0 in 0 W/m2
01:31 39.9 °F 33.6 °F 30.2 in Calm     78% 0 in 0 W/m2
01:36 39.6 °F 33.6 °F 30.2 in Calm     79% 0 in 0 W/m2
01:41 39.4 °F 33.4 °F 30.2 in Calm     79% 0 in 0 W/m2
01:46 39.2 °F 33.6 °F 30.2 in WNW 0.9 mph 2 mph 80% 0 in 0 W/m2
01:52 38.8 °F 33.3 °F 30.2 in WNW 0.9 mph 1 mph 80% 0 in 0 W/m2
01:57 38.7 °F 33.3 °F 30.2 in Calm     81% 0 in 0 W/m2
02:02 38.5 °F 33.1 °F 30.2 in WNW 0.9 mph 1 mph 81% 0 in 0 W/m2
02:07 38.5 °F 33.4 °F 30.2 in Calm   2 mph 82% 0 in 0 W/m2
02:12 38.3 °F 33.3 °F 30.2 in Calm   1 mph 82% 0 in 0 W/m2
02:17 38.1 °F 33.1 °F 30.2 in Calm   2 mph 82% 0 in 0 W/m2
02:22 38.1 °F 33.1 °F 30.2 in Calm   1 mph 82% 0 in 0 W/m2
02:27 37.9 °F 32.9 °F 30.2 in Calm     82% 0 in 0 W/m2
02:32 37.8 °F 32.7 °F 30.2 in Calm     82% 0 in 0 W/m2
02:37 37.8 °F 33.1 °F 30.2 in Calm     83% 0 in 0 W/m2
02:42 37.6 °F 32.9 °F 30.2 in Calm     83% 0 in 0 W/m2
02:47 37.4 °F 32.7 °F 30.2 in Calm     83% 0 in 0 W/m2
02:52 37.2 °F 32.5 °F 30.2 in Calm     83% 0 in 0 W/m2
02:57 37 °F 32.7 °F 30.2 in Calm     84% 0 in 0 W/m2
03:02 36.9 °F 32.5 °F 30.2 in Calm     84% 0 in 0 W/m2
03:07 36.9 °F 32.7 °F 30.2 in Calm     85% 0 in 0 W/m2
03:12 36.7 °F 32.5 °F 30.2 in Calm     85% 0 in 0 W/m2
03:17 36.5 °F 32.4 °F 30.2 in Calm   1 mph 85% 0 in 0 W/m2
03:22 36.3 °F 32.2 °F 30.2 in Calm     85% 0 in 0 W/m2
03:27 36.1 °F 32 °F 30.2 in Calm   1 mph 85% 0 in 0 W/m2
03:32 36 °F 31.8 °F 30.2 in Calm     85% 0 in 0 W/m2
03:37 36 °F 32.2 °F 30.2 in Calm     86% 0 in 0 W/m2
03:42 35.8 °F 32 °F 30.2 in Calm     86% 0 in 0 W/m2
03:47 35.8 °F 32.4 °F 30.2 in Calm     87% 0 in 0 W/m2
03:52 35.8 °F 32.4 °F 30.2 in Calm     87% 0 in 0 W/m2
03:57 35.6 °F 32.2 °F 30.2 in Calm     87% 0 in 0 W/m2
04:02 35.4 °F 32 °F 30.2 in Calm     87% 0 in 0 W/m2
04:07 35.4 °F 32 °F 30.2 in Calm     87% 0 in 0 W/m2
04:12 35.2 °F 32 °F 30.2 in Calm   1 mph 88% 0 in 0 W/m2
04:17 35.2 °F 32 °F 30.2 in Calm     88% 0 in 0 W/m2
04:22 35.2 °F 32 °F 30.2 in Calm     88% 0 in 0 W/m2
04:27 35.1 °F 31.8 °F 30.2 in Calm     88% 0 in 0 W/m2
04:32 35.1 °F 31.8 °F 30.2 in Calm     88% 0 in 0 W/m2
04:37 35.1 °F 31.8 °F 30.2 in Calm     88% 0 in 0 W/m2
04:42 35.1 °F 32.2 °F 30.2 in Calm     89% 0 in 0 W/m2
04:47 35.1 °F 32.2 °F 30.2 in Calm     89% 0 in 0 W/m2
04:52 35.1 °F 32.2 °F 30.2 in Calm     89% 0 in 0 W/m2
04:57 35.1 °F 32.2 °F 30.2 in Calm   1 mph 89% 0 in 0 W/m2
05:02 35.1 °F 31.8 °F 30.2 in Calm     88% 0 in 0 W/m2
05:07 35.1 °F 32.2 °F 30.2 in Calm     89% 0 in 0 W/m2
05:12 35.1 °F 32.2 °F 30.2 in Calm     89% 0 in 0 W/m2
05:17 35.2 °F 32.4 °F 30.2 in Calm     89% 0 in 0 W/m2
05:22 35.2 °F 32.4 °F 30.2 in Calm     89% 0 in 0 W/m2
05:27 35.4 °F 32.5 °F 30.2 in Calm     89% 0 in 0 W/m2
05:32 35.4 °F 32.5 °F 30.2 in Calm     89% 0 in 0 W/m2
05:37 35.2 °F 32.4 °F 30.2 in Calm     89% 0 in 0 W/m2
05:42 35.2 °F 32 °F 30.2 in Calm     88% 0 in 0 W/m2
05:47 35.2 °F 32.4 °F 30.2 in Calm     89% 0 in 0 W/m2
05:52 35.1 °F 32.2 °F 30.2 in Calm   1 mph 89% 0 in 0 W/m2
05:57 35.1 °F 32.2 °F 30.2 in WNW 0.9 mph 2 mph 89% 0 in 0 W/m2
06:02 35.1 °F 32.2 °F 30.2 in Calm   1 mph 89% 0 in 0 W/m2
06:07 35.1 °F 32.2 °F 30.2 in Calm     89% 0 in 0 W/m2
06:12 35.1 °F 32.2 °F 30.2 in Calm   1 mph 89% 0 in 5 W/m2
06:17 34.9 °F 32 °F 30.2 in Calm     89% 0 in 7 W/m2
06:22 34.9 °F 32 °F 30.2 in Calm   1 mph 89% 0 in 9 W/m2
06:27 34.7 °F 31.8 °F 30.2 in Calm     89% 0 in 12 W/m2
06:32 34.5 °F 31.6 °F 30.2 in Calm     89% 0 in 14 W/m2
06:37 34.5 °F 31.6 °F 30.2 in Calm     89% 0 in 18 W/m2
06:42 34.5 °F 31.6 °F 30.2 in WNW 0.9 mph 1 mph 89% 0 in 21 W/m2
06:47 34.7 °F 32 °F 30.2 in Calm   1 mph 90% 0 in 28 W/m2
06:52 34.9 °F 32.2 °F 30.2 in Calm     90% 0 in 30 W/m2
06:57 34.9 °F 32.2 °F 30.2 in Calm     90% 0 in 35 W/m2
07:02 35.1 °F 32.4 °F 30.2 in Calm     90% 0 in 37 W/m2
07:07 35.1 °F 32.4 °F 30.2 in Calm     90% 0 in 39 W/m2
07:13 35.2 °F 32.5 °F 30.2 in Calm     90% 0 in 40 W/m2
07:18 35.6 °F 32.9 °F 30.2 in Calm     90% 0 in 33 W/m2
07:23 35.8 °F 33.1 °F 30.2 in Calm     90% 0 in 32 W/m2
07:28 36 °F 33.3 °F 30.2 in Calm     90% 0 in 32 W/m2
07:33 36.1 °F 33.3 °F 30.2 in Calm     89% 0 in 33 W/m2
07:38 36.1 °F 33.3 °F 30.2 in Calm     89% 0 in 40 W/m2
07:43 36.3 °F 33.4 °F 30.2 in Calm     89% 0 in 44 W/m2
07:48 36.7 °F 33.8 °F 30.2 in Calm     89% 0 in 46 W/m2
07:53 36.9 °F 34 °F 30.2 in Calm     89% 0 in 47 W/m2
07:58 37.2 °F 34.3 °F 30.2 in Calm     89% 0 in 51 W/m2
08:03 37.8 °F 34.5 °F 30.2 in Calm     88% 0 in 53 W/m2
08:08 38.5 °F 35.2 °F 30.2 in Calm   2 mph 88% 0 in 53 W/m2
08:13 39.6 °F 36 °F 30.2 in ENE 0.9 mph 3 mph 87% 0 in 54 W/m2
08:18 40.6 °F 36.1 °F 30.2 in ENE 0.9 mph 1 mph 84% 0 in 56 W/m2
08:23 41.2 °F 36.1 °F 30.2 in Calm   3 mph 82% 0 in 58 W/m2
08:28 42.1 °F 36.7 °F 30.2 in Calm   2 mph 81% 0 in 62 W/m2
08:33 42.8 °F 36.7 °F 30.2 in ENE 0.9 mph 2 mph 79% 0 in 62 W/m2
08:38 43.2 °F 36.7 °F 30.2 in ENE 2 mph 3 mph 78% 0 in 76 W/m2
08:43 43.3 °F 36.7 °F 30.2 in ENE 0.9 mph 4 mph 77% 0 in 181 W/m2
08:48 43.5 °F 36.9 °F 30.2 in ENE 2.9 mph 3 mph 77% 0 in 276 W/m2
08:53 43.9 °F 36.9 °F 30.2 in ENE 2.9 mph 4 mph 76% 0 in 329 W/m2
08:58 44.2 °F 36.9 °F 30.2 in ESE 2 mph 4 mph 75% 0 in 350 W/m2
09:03 44.8 °F 37.4 °F 30.2 in ESE 2 mph 3 mph 75% 0 in 355 W/m2
09:08 45.1 °F 37.8 °F 30.2 in SE 2 mph 2 mph 75% 0 in 359 W/m2
09:13 45.7 °F 37.9 °F 30.2 in NE 2 mph 4 mph 74% 0 in 357 W/m2
09:18 45.9 °F 38.1 °F 30.2 in East 2 mph 4 mph 74% 0 in 408 W/m2
09:23 46.4 °F 38.5 °F 30.2 in ESE 2 mph 2 mph 74% 0 in 410 W/m2
09:28 47.1 °F 38.5 °F 30.2 in East 0.9 mph 3 mph 72% 0 in 443 W/m2
09:33 47.5 °F 38.1 °F 30.2 in NE 0.9 mph 4 mph 70% 0 in 343 W/m2
09:38 47.7 °F 38.3 °F 30.2 in North 0.9 mph 4 mph 70% 0 in 83 W/m2
09:43 48 °F 38.3 °F 30.2 in North 2 mph 4 mph 69% 0 in 160 W/m2
09:48 48.7 °F 38.7 °F 30.2 in NE 2 mph 2 mph 68% 0 in 490 W/m2
09:53 49.3 °F 38.8 °F 30.2 in SE 0.9 mph 2 mph 67% 0 in 496 W/m2
09:58 49.6 °F 38.3 °F 30.2 in East 2.9 mph 4 mph 65% 0 in 517 W/m2
10:03 49.8 °F 38.1 °F 30.2 in West 2 mph 3 mph 64% 0 in 218 W/m2
10:08 50 °F 37.9 °F 30.2 in NNW 2 mph 4 mph 63% 0 in 281 W/m2
10:13 50.5 °F 37.9 °F 30.2 in Calm   6 mph 62% 0 in 592 W/m2
10:18 51.3 °F 38.3 °F 30.2 in NW 4.9 mph 8 mph 61% 0 in 626 W/m2
10:23 51.4 °F 37.6 °F 30.2 in WNW 2.9 mph 8 mph 59% 0 in 629 W/m2
10:28 51.6 °F 37.4 °F 30.2 in West 4 mph 9 mph 58% 0 in 603 W/m2
10:33 52 °F 36.9 °F 30.2 in Calm   5 mph 56% 0 in 631 W/m2
10:38 52.3 °F 36.7 °F 30.2 in West 4 mph 10 mph 55% 0 in 649 W/m2
10:43 52.2 °F 37.4 °F 30.2 in WNW 0.9 mph 6 mph 57% 0 in 656 W/m2
10:48 52.3 °F 37 °F 30.2 in NW 4 mph 10 mph 56% 0 in 664 W/m2
10:53 52.2 °F 36.9 °F 30.2 in WNW 2 mph 11 mph 56% 0 in 116 W/m2
10:58 52.2 °F 37.4 °F 30.2 in NW 2 mph 3 mph 57% 0 in 726 W/m2
11:03 52.5 °F 37.2 °F 30.2 in WNW 2.9 mph 8 mph 56% 0 in 302 W/m2
11:08 53.1 °F 38.3 °F 30.2 in WSW 0.9 mph 3 mph 57% 0 in 796 W/m2
11:13 53.6 °F 37.8 °F 30.2 in West 0.9 mph 4 mph 55% 0 in 260 W/m2
11:18 53.6 °F 38.3 °F 30.2 in NW 2.9 mph 7 mph 56% 0 in 881 W/m2
11:23 53.8 °F 37.9 °F 30.2 in NNW 2.9 mph 6 mph 55% 0 in 911 W/m2
11:28 53.8 °F 37.6 °F 30.2 in WSW 6.9 mph 9 mph 54% 0 in 179 W/m2
11:33 53.2 °F 37 °F 30.2 in WNW 6.9 mph 8 mph 54% 0 in 171 W/m2
11:38 52.5 °F 36 °F 30.2 in Calm   7 mph 53% 0 in 190 W/m2
11:43 52.3 °F 35.8 °F 30.2 in WNW 4 mph 8 mph 53% 0 in 947 W/m2
11:48 53.2 °F 35.6 °F 30.2 in WNW 0.9 mph 8 mph 51% 0 in 969 W/m2
11:53 53.8 °F 35.1 °F 30.2 in WNW 2.9 mph 4 mph 49% 0 in 265 W/m2
11:58 54.1 °F 34.9 °F 30.2 in NE 2.9 mph 10 mph 48% 0 in 933 W/m2
12:03 54.7 °F 36.9 °F 30.2 in WNW 4 mph 10 mph 51% 0 in 984 W/m2
12:08 54.9 °F 36.5 °F 30.2 in West 4 mph 8 mph 50% 0 in 299 W/m2
12:13 54.5 °F 36.7 °F 30.2 in NW 2 mph 11 mph 51% 0 in 870 W/m2
12:18 54.3 °F 36.5 °F 30.2 in ESE 4 mph 4 mph 51% 0 in 782 W/m2
12:23 54.9 °F 36.5 °F 30.2 in West 6.9 mph 12 mph 50% 0 in 875 W/m2
12:28 54.5 °F 35.8 °F 30.2 in Calm   7 mph 49% 0 in 492 W/m2
12:33 54.7 °F 37.4 °F 30.2 in East 4.9 mph 5 mph 52% 0 in 990 W/m2
12:38 55.6 °F 36.1 °F 30.2 in WNW 4.9 mph 6 mph 48% 0 in 997 W/m2
12:43 55.9 °F 36 °F 30.2 in North 2 mph 9 mph 47% 0 in 526 W/m2
12:48 56.3 °F 36.3 °F 30.2 in WNW 2.9 mph 4 mph 47% 0 in 1039 W/m2
12:53 56.7 °F 36.7 °F 30.2 in West 2.9 mph 5 mph 47% 0 in 1107 W/m2
12:58 56.7 °F 36.7 °F 30.1 in WSW 4 mph 8 mph 47% 0 in 1071 W/m2
13:03 56.1 °F 36.1 °F 30.2 in South 4.9 mph 11 mph 47% 0 in 1123 W/m2
13:08 55.9 °F 36.5 °F 30.1 in SW 6.9 mph 7 mph 48% 0 in 318 W/m2
13:13 55.6 °F 35.6 °F 30.1 in NW 0.9 mph 8 mph 47% 0 in 292 W/m2
13:18 55.6 °F 34.5 °F 30.1 in North 2.9 mph 9 mph 45% 0 in 313 W/m2
13:23 55.8 °F 35.8 °F 30.1 in NNE 4.9 mph 8 mph 47% 0 in 1053 W/m2
13:28 56.3 °F 36.3 °F 30.1 in NW 4.9 mph 12 mph 47% 0 in 933 W/m2
13:33 56.8 °F 36.3 °F 30.1 in NE 0.9 mph 9 mph 46% 0 in 1028 W/m2
13:38 56.7 °F 36.7 °F 30.1 in NW 4 mph 12 mph 47% 0 in 269 W/m2
13:43 56.5 °F 35.4 °F 30.1 in ENE 2 mph 7 mph 45% 0 in 283 W/m2
13:48 56.1 °F 35.6 °F 30.1 in East 2 mph 12 mph 46% 0 in 364 W/m2
13:53 55.9 °F 36 °F 30.1 in NW 0.9 mph 8 mph 47% 0 in 279 W/m2
13:58 55.8 °F 36.3 °F 30.1 in NW 0.9 mph 5 mph 48% 0 in 264 W/m2
14:03 55.8 °F 36.3 °F 30.1 in NW 0.9 mph 4 mph 48% 0 in 232 W/m2
14:08 55.6 °F 35.6 °F 30.1 in West 0.9 mph 11 mph 47% 0 in 220 W/m2
14:13 55.2 °F 36 °F 30.1 in WSW 2.9 mph 3 mph 48% 0 in 216 W/m2
14:18 55 °F 36.1 °F 30.1 in Calm   11 mph 49% 0 in 193 W/m2
14:23 55.2 °F 36 °F 30.1 in West 6 mph 8 mph 48% 0 in 202 W/m2
14:28 55.2 °F 35.4 °F 30.1 in West 2 mph 7 mph 47% 0 in 199 W/m2
14:33 55.2 °F 35.4 °F 30.1 in WNW 4.9 mph 9 mph 47% 0 in 230 W/m2
14:38 55.4 °F 35.4 °F 30.1 in WNW 2.9 mph 6 mph 47% 0 in 185 W/m2
14:43 55.2 °F 35.4 °F 30.1 in West 4 mph 5 mph 47% 0 in 246 W/m2
14:48 55.9 °F 37.6 °F 30.1 in WNW 6.9 mph 7 mph 50% 0 in 1032 W/m2
14:53 56.8 °F 36.3 °F 30.1 in WSW 4 mph 5 mph 46% 0 in 197 W/m2
14:58 56.7 °F 35.1 °F 30.1 in West 2 mph 8 mph 44% 0 in 255 W/m2
15:03 56.3 °F 35.8 °F 30.1 in WNW 2.9 mph 8 mph 46% 0 in 244 W/m2
15:08 56.3 °F 35.8 °F 30.1 in SW 4 mph 7 mph 46% 0 in 272 W/m2
15:13 56.5 °F 36 °F 30.1 in WNW 4.9 mph 10 mph 46% 0 in 272 W/m2
15:18 56.5 °F 36 °F 30.1 in West 6.9 mph 10 mph 46% 0 in 251 W/m2
15:23 56.3 °F 34.7 °F 30.1 in West 6 mph 10 mph 44% 0 in 218 W/m2
15:28 56.3 °F 35.2 °F 30.1 in WNW 2.9 mph 6 mph 45% 0 in 200 W/m2
15:33 56.5 °F 36 °F 30.1 in WSW 4 mph 10 mph 46% 0 in 188 W/m2
15:38 56.1 °F 35.6 °F 30.1 in WNW 4 mph 7 mph 46% 0 in 221 W/m2
15:43 56.3 °F 36.3 °F 30.1 in West 2 mph 9 mph 47% 0 in 258 W/m2
15:48 56.8 °F 36.3 °F 30.1 in WSW 2 mph 8 mph 46% 0 in 345 W/m2
15:53 57.4 °F 36.7 °F 30.1 in NW 2.9 mph 10 mph 46% 0 in 366 W/m2
15:58 57.4 °F 36.1 °F 30.1 in NW 2.9 mph 8 mph 45% 0 in 360 W/m2
16:03 57.6 °F 35.8 °F 30.1 in WNW 10.1 mph 11 mph 44% 0 in 872 W/m2
16:08 58.5 °F 35.4 °F 30.1 in WNW 2.9 mph 4 mph 42% 0 in 759 W/m2
16:13 58.8 °F 35.2 °F 30.1 in NW 2.9 mph 11 mph 41% 0 in 265 W/m2
16:18 58.8 °F 35.2 °F 30.1 in WSW 4 mph 12 mph 41% 0 in 786 W/m2
16:23 58.6 °F 35.1 °F 30.1 in NNW 4.9 mph 5 mph 41% 0 in 265 W/m2
16:28 58.3 °F 34.7 °F 30.1 in NW 2.9 mph 12 mph 41% 0 in 323 W/m2
16:33 58.6 °F 35.6 °F 30.1 in SW 2.9 mph 9 mph 42% 0 in 830 W/m2
16:38 58.8 °F 34.5 °F 30.1 in WNW 4 mph 8 mph 40% 0 in 204 W/m2
16:43 58.6 °F 34.3 °F 30.1 in WSW 2 mph 9 mph 40% 0 in 362 W/m2
16:48 58.8 °F 34.5 °F 30.1 in NW 2.9 mph 7 mph 40% 0 in 200 W/m2
16:53 58.6 °F 34.3 °F 30.1 in NW 2 mph 8 mph 40% 0 in 185 W/m2
16:58 58.5 °F 34.2 °F 30.1 in WNW 4.9 mph 6 mph 40% 0 in 179 W/m2
17:03 58.1 °F 34 °F 30 in West 6.9 mph 11 mph 40% 0 in 220 W/m2
17:08 58.1 °F 34.5 °F 30 in WNW 4 mph 8 mph 41% 0 in 327 W/m2
17:13 58.5 °F 34.2 °F 30 in WSW 4.9 mph 11 mph 40% 0 in 429 W/m2
17:18 59 °F 35.4 °F 30 in WNW 6.9 mph 7 mph 41% 0 in 281 W/m2
17:23 59.2 °F 34.2 °F 30 in SW 2.9 mph 8 mph 39% 0 in 297 W/m2
17:28 59 °F 34.2 °F 30 in West 6 mph 13 mph 39% 0 in 350 W/m2
17:33 58.8 °F 35.2 °F 30 in WNW 0.9 mph 4 mph 41% 0 in 267 W/m2
17:38 58.8 °F 34.5 °F 30 in NW 2 mph 9 mph 40% 0 in 211 W/m2
17:43 58.5 °F 34.2 °F 30 in South 2 mph 7 mph 40% 0 in 200 W/m2
17:48 58.3 °F 34.7 °F 30 in WNW 2.9 mph 8 mph 41% 0 in 605 W/m2
17:53 58.8 °F 34.5 °F 30 in WNW 0.9 mph 7 mph 40% 0 in 462 W/m2
17:59 59.2 °F 35.4 °F 30 in NNW 4 mph 5 mph 41% 0 in 179 W/m2
18:04 58.8 °F 35.2 °F 30 in ENE 2 mph 4 mph 41% 0 in 141 W/m2
18:09 58.5 °F 34.9 °F 30 in NNW 2.9 mph 8 mph 41% 0 in 130 W/m2
18:14 57.9 °F 34.9 °F 30 in West 4 mph 7 mph 42% 0 in 160 W/m2
18:19 58.1 °F 35.8 °F 30 in Calm   8 mph 43% 0 in 478 W/m2
18:24 58.5 °F 34.9 °F 30 in WSW 2.9 mph 7 mph 41% 0 in 169 W/m2
18:29 58.6 °F 35.1 °F 30 in NW 0.9 mph 8 mph 41% 0 in 130 W/m2
18:34 58.5 °F 35.4 °F 30 in North 0.9 mph 8 mph 42% 0 in 211 W/m2
18:39 58.5 °F 34.9 °F 30 in WNW 4.9 mph 9 mph 41% 0 in 362 W/m2
18:44 58.3 °F 35.2 °F 30 in West 6 mph 8 mph 42% 0 in 95 W/m2
18:49 57.9 °F 35.6 °F 30 in NW 2.9 mph 9 mph 43% 0 in 220 W/m2
18:54 57.7 °F 35.4 °F 30 in NNW 2 mph 6 mph 43% 0 in 95 W/m2
18:59 57.6 °F 35.2 °F 30 in WNW 8 mph 8 mph 43% 0 in 83 W/m2
19:04 57.4 °F 35.1 °F 30 in NNE 2 mph 3 mph 43% 0 in 241 W/m2
19:09 57.7 °F 35.4 °F 30 in NNW 2 mph 8 mph 43% 0 in 209 W/m2
19:14 57.7 °F 36 °F 30 in NW 2 mph 6 mph 44% 0 in 91 W/m2
19:19 57.7 °F 35.4 °F 30 in Calm   8 mph 43% 0 in 109 W/m2
19:24 57.7 °F 35.4 °F 30 in West 2 mph 6 mph 43% 0 in 163 W/m2
19:29 57.9 °F 34.9 °F 30 in WNW 2 mph 7 mph 42% 0 in 149 W/m2
19:34 57.9 °F 34.9 °F 30 in NE 2 mph 5 mph 42% 0 in 146 W/m2
19:39 57.7 °F 35.4 °F 30 in Calm   4 mph 43% 0 in 65 W/m2
19:44 57.7 °F 36 °F 30 in Calm   1 mph 44% 0 in 56 W/m2
19:49 57.6 °F 35.8 °F 30 in Calm   2 mph 44% 0 in 39 W/m2
19:54 57.2 °F 34.9 °F 30 in WNW 2.9 mph 6 mph 43% 0 in 49 W/m2
19:59 56.8 °F 34.5 °F 30 in Calm   3 mph 43% 0 in 32 W/m2
20:04 56.7 °F 34.3 °F 30 in WNW 0.9 mph 6 mph 43% 0 in 44 W/m2
20:09 56.7 °F 34.3 °F 30 in SW 2 mph 9 mph 43% 0 in 44 W/m2
20:14 56.5 °F 35.4 °F 30 in Calm   2 mph 45% 0 in 28 W/m2
20:19 56.1 °F 35.1 °F 30 in Calm   9 mph 45% 0 in 23 W/m2
20:24 55.9 °F 34.9 °F 30 in SW 0.9 mph 3 mph 45% 0 in 19 W/m2
20:29 55.4 °F 36 °F 30 in Calm   1 mph 48% 0 in 14 W/m2
20:34 55 °F 36.7 °F 30 in SW 0.9 mph 2 mph 50% 0 in 12 W/m2
20:39 54.3 °F 36.5 °F 30 in Calm   1 mph 51% 0 in 9 W/m2
20:44 53.8 °F 37 °F 30 in SW 0.9 mph 1 mph 53% 0 in 7 W/m2
20:49 53.1 °F 36.9 °F 30 in Calm   1 mph 54% 0 in 5 W/m2
20:54 52.3 °F 36.7 °F 30 in SW 0.9 mph 1 mph 55% 0 in 0 W/m2
20:59 51.8 °F 36.7 °F 30 in Calm   2 mph 56% 0 in 0 W/m2
21:04 51.3 °F 36.5 °F 30 in Calm     57% 0 in 0 W/m2
21:09 50.7 °F 36.5 °F 29.9 in Calm     58% 0 in 0 W/m2
21:14 50.2 °F 36.3 °F 29.9 in Calm     59% 0 in 0 W/m2
21:19 49.6 °F 36 °F 29.9 in Calm     59% 0 in 0 W/m2
21:24 49.3 °F 36.3 °F 29.9 in Calm     61% 0 in 0 W/m2
21:29 48.7 °F 36.3 °F 29.9 in Calm     62% 0 in 0 W/m2
21:34 48.4 °F 36 °F 29.9 in Calm     62% 0 in 0 W/m2
21:39 48 °F 35.6 °F 29.9 in Calm     62% 0 in 0 W/m2
21:44 47.7 °F 36.1 °F 29.9 in Calm     64% 0 in 0 W/m2
21:49 47.5 °F 35.6 °F 29.9 in Calm     63% 0 in 0 W/m2
21:54 47.1 °F 35.6 °F 29.9 in Calm     64% 0 in 0 W/m2
21:59 46.9 °F 35.8 °F 29.9 in Calm     65% 0 in 0 W/m2
22:04 46.9 °F 35.8 °F 29.9 in Calm     65% 0 in 0 W/m2
22:09 46.8 °F 36 °F 29.9 in Calm     66% 0 in 0 W/m2
22:14 46.6 °F 35.8 °F 29.9 in Calm     66% 0 in 0 W/m2
22:19 46.6 °F 35.8 °F 29.9 in Calm     66% 0 in 0 W/m2
22:24 46.4 °F 36 °F 29.9 in Calm     67% 0 in 0 W/m2
22:29 46.2 °F 36 °F 29.9 in Calm     67% 0 in 0 W/m2
22:34 46.2 °F 36 °F 29.9 in Calm     67% 0 in 0 W/m2
22:39 46 °F 35.8 °F 29.9 in Calm     67% 0 in 0 W/m2
22:44 46 °F 36.1 °F 29.9 in Calm     68% 0 in 0 W/m2
22:49 45.9 °F 36 °F 29.9 in Calm     68% 0 in 0 W/m2
22:54 45.7 °F 35.8 °F 29.9 in Calm     68% 0 in 0 W/m2
22:59 45.7 °F 35.8 °F 29.9 in Calm     68% 0 in 0 W/m2
23:04 45.7 °F 35.8 °F 29.9 in Calm     68% 0 in 0 W/m2
23:09 45.5 °F 36 °F 29.9 in Calm   3 mph 69% 0 in 0 W/m2
23:14 45.5 °F 36 °F 29.9 in SW 0.9 mph 2 mph 69% 0 in 0 W/m2
23:19 45.5 °F 36 °F 29.9 in Calm   3 mph 69% 0 in 0 W/m2
23:24 45.3 °F 35.8 °F 29.9 in Calm   1 mph 69% 0 in 0 W/m2
23:29 45.3 °F 35.8 °F 29.9 in Calm   2 mph 69% 0 in 0 W/m2
23:34 45.3 °F 35.8 °F 29.9 in SW 0.9 mph 1 mph 69% 0 in 0 W/m2
23:39 45.3 °F 35.8 °F 29.9 in SW 0.9 mph 2 mph 69% 0 in 0 W/m2
23:44 45.7 °F 35.8 °F 29.9 in NW 2 mph 2 mph 68% 0 in 0 W/m2
23:49 46.4 °F 36 °F 29.9 in SSE 0.9 mph 1 mph 67% 0 in 0 W/m2
23:54 46.9 °F 35.4 °F 29.9 in Calm   2 mph 64% 0 in 0 W/m2
23:59 47.8 °F 36.3 °F 29.9 in West 0.9 mph 3 mph 64% 0 in 0 W/m2
Juneau County Weather
Compliments of Weather Underground - 2 mb